sensor_id;sensor_type;location;lat;lon;timestamp;P1;durP1;ratioP1;P2;durP2;ratioP2
77417;SDS011;66490;51.484;0.026;2023-08-01T00:02:54;14.33;;;3.47;;
77417;SDS011;66490;51.484;0.026;2023-08-01T00:05:57;10.57;;;3.72;;
77417;SDS011;66490;51.484;0.026;2023-08-01T00:08:45;9.32;;;3.05;;
77417;SDS011;66490;51.484;0.026;2023-08-01T00:11:52;12.02;;;3.30;;
77417;SDS011;66490;51.484;0.026;2023-08-01T00:14:42;14.35;;;3.58;;
77417;SDS011;66490;51.484;0.026;2023-08-01T00:17:31;10.47;;;2.90;;
77417;SDS011;66490;51.484;0.026;2023-08-01T00:20:16;10.88;;;3.05;;
77417;SDS011;66490;51.484;0.026;2023-08-01T00:23:10;9.63;;;3.00;;
77417;SDS011;66490;51.484;0.026;2023-08-01T00:26:08;9.57;;;3.10;;
77417;SDS011;66490;51.484;0.026;2023-08-01T00:28:56;14.40;;;5.00;;
77417;SDS011;66490;51.484;0.026;2023-08-01T00:31:56;13.83;;;3.73;;
77417;SDS011;66490;51.484;0.026;2023-08-01T00:34:46;12.75;;;4.15;;
77417;SDS011;66490;51.484;0.026;2023-08-01T00:37:33;12.57;;;3.67;;
77417;SDS011;66490;51.484;0.026;2023-08-01T00:40:20;13.35;;;3.80;;
77417;SDS011;66490;51.484;0.026;2023-08-01T00:43:08;10.13;;;3.45;;
77417;SDS011;66490;51.484;0.026;2023-08-01T00:45:53;12.47;;;4.87;;
77417;SDS011;66490;51.484;0.026;2023-08-01T00:48:53;18.05;;;4.22;;
77417;SDS011;66490;51.484;0.026;2023-08-01T00:51:45;16.05;;;4.35;;
77417;SDS011;66490;51.484;0.026;2023-08-01T00:54:32;12.70;;;3.95;;
77417;SDS011;66490;51.484;0.026;2023-08-01T00:57:20;12.75;;;4.65;;
77417;SDS011;66490;51.484;0.026;2023-08-01T01:00:13;13.23;;;3.83;;
77417;SDS011;66490;51.484;0.026;2023-08-01T01:03:08;14.55;;;4.00;;
77417;SDS011;66490;51.484;0.026;2023-08-01T01:06:17;13.40;;;4.55;;
77417;SDS011;66490;51.484;0.026;2023-08-01T01:09:15;12.15;;;3.45;;
77417;SDS011;66490;51.484;0.026;2023-08-01T01:12:10;16.77;;;4.60;;
77417;SDS011;66490;51.484;0.026;2023-08-01T01:15:25;15.60;;;4.57;;
77417;SDS011;66490;51.484;0.026;2023-08-01T01:18:23;10.07;;;3.85;;
77417;SDS011;66490;51.484;0.026;2023-08-01T01:21:10;9.65;;;3.60;;
77417;SDS011;66490;51.484;0.026;2023-08-01T01:24:09;15.52;;;4.50;;
77417;SDS011;66490;51.484;0.026;2023-08-01T01:26:57;13.90;;;4.55;;
77417;SDS011;66490;51.484;0.026;2023-08-01T01:29:52;13.00;;;4.00;;
77417;SDS011;66490;51.484;0.026;2023-08-01T01:32:44;13.98;;;4.30;;
77417;SDS011;66490;51.484;0.026;2023-08-01T01:35:37;14.90;;;3.80;;
77417;SDS011;66490;51.484;0.026;2023-08-01T01:38:29;13.30;;;3.80;;
77417;SDS011;66490;51.484;0.026;2023-08-01T01:41:17;14.75;;;3.58;;
77417;SDS011;66490;51.484;0.026;2023-08-01T01:44:14;14.77;;;4.17;;
77417;SDS011;66490;51.484;0.026;2023-08-01T01:47:01;14.57;;;4.25;;
77417;SDS011;66490;51.484;0.026;2023-08-01T01:49:49;15.32;;;4.22;;
77417;SDS011;66490;51.484;0.026;2023-08-01T01:52:36;14.30;;;4.90;;
77417;SDS011;66490;51.484;0.026;2023-08-01T01:55:23;12.48;;;4.28;;
77417;SDS011;66490;51.484;0.026;2023-08-01T01:58:07;15.03;;;3.50;;
77417;SDS011;66490;51.484;0.026;2023-08-01T02:01:13;14.18;;;4.07;;
77417;SDS011;66490;51.484;0.026;2023-08-01T02:04:06;12.35;;;4.05;;
77417;SDS011;66490;51.484;0.026;2023-08-01T02:06:57;11.73;;;3.60;;
77417;SDS011;66490;51.484;0.026;2023-08-01T02:09:44;17.73;;;4.60;;
77417;SDS011;66490;51.484;0.026;2023-08-01T02:12:30;12.67;;;4.20;;
77417;SDS011;66490;51.484;0.026;2023-08-01T02:15:54;15.32;;;3.75;;
77417;SDS011;66490;51.484;0.026;2023-08-01T02:18:41;13.48;;;4.28;;
77417;SDS011;66490;51.484;0.026;2023-08-01T02:21:29;10.70;;;4.05;;
77417;SDS011;66490;51.484;0.026;2023-08-01T02:24:16;12.48;;;4.40;;
77417;SDS011;66490;51.484;0.026;2023-08-01T02:27:03;13.73;;;3.80;;
77417;SDS011;66490;51.484;0.026;2023-08-01T02:29:54;10.65;;;3.97;;
77417;SDS011;66490;51.484;0.026;2023-08-01T02:32:52;13.90;;;4.10;;
77417;SDS011;66490;51.484;0.026;2023-08-01T02:38:58;13.50;;;4.70;;
77417;SDS011;66490;51.484;0.026;2023-08-01T02:41:58;15.07;;;4.43;;
77417;SDS011;66490;51.484;0.026;2023-08-01T02:44:44;10.48;;;4.15;;
77417;SDS011;66490;51.484;0.026;2023-08-01T02:47:34;16.00;;;4.65;;
77417;SDS011;66490;51.484;0.026;2023-08-01T02:50:19;15.38;;;4.13;;
77417;SDS011;66490;51.484;0.026;2023-08-01T02:53:06;11.02;;;4.00;;
77417;SDS011;66490;51.484;0.026;2023-08-01T02:55:58;11.13;;;3.53;;
77417;SDS011;66490;51.484;0.026;2023-08-01T02:58:56;12.48;;;4.38;;
77417;SDS011;66490;51.484;0.026;2023-08-01T03:01:49;10.82;;;4.05;;
77417;SDS011;66490;51.484;0.026;2023-08-01T03:04:37;17.17;;;4.47;;
77417;SDS011;66490;51.484;0.026;2023-08-01T03:07:27;11.30;;;4.03;;
77417;SDS011;66490;51.484;0.026;2023-08-01T03:10:15;16.10;;;3.60;;
77417;SDS011;66490;51.484;0.026;2023-08-01T03:13:36;13.07;;;4.35;;
77417;SDS011;66490;51.484;0.026;2023-08-01T03:16:41;16.25;;;4.68;;
77417;SDS011;66490;51.484;0.026;2023-08-01T03:19:34;14.15;;;3.92;;
77417;SDS011;66490;51.484;0.026;2023-08-01T03:22:25;14.10;;;4.05;;
77417;SDS011;66490;51.484;0.026;2023-08-01T03:25:12;12.60;;;3.47;;
77417;SDS011;66490;51.484;0.026;2023-08-01T03:28:07;10.90;;;3.55;;
77417;SDS011;66490;51.484;0.026;2023-08-01T03:31:12;13.95;;;4.40;;
77417;SDS011;66490;51.484;0.026;2023-08-01T03:34:12;12.43;;;4.10;;
77417;SDS011;66490;51.484;0.026;2023-08-01T03:37:08;14.27;;;4.72;;
77417;SDS011;66490;51.484;0.026;2023-08-01T03:40:15;14.97;;;4.77;;
77417;SDS011;66490;51.484;0.026;2023-08-01T03:43:02;11.65;;;4.05;;
77417;SDS011;66490;51.484;0.026;2023-08-01T03:45:51;17.70;;;4.10;;
77417;SDS011;66490;51.484;0.026;2023-08-01T03:48:49;13.38;;;4.00;;
77417;SDS011;66490;51.484;0.026;2023-08-01T03:51:38;12.35;;;3.85;;
77417;SDS011;66490;51.484;0.026;2023-08-01T03:54:37;15.73;;;3.60;;
77417;SDS011;66490;51.484;0.026;2023-08-01T03:57:30;9.00;;;3.75;;
77417;SDS011;66490;51.484;0.026;2023-08-01T04:00:17;15.93;;;4.82;;
77417;SDS011;66490;51.484;0.026;2023-08-01T04:03:33;14.13;;;4.00;;
77417;SDS011;66490;51.484;0.026;2023-08-01T04:06:20;10.25;;;4.75;;
77417;SDS011;66490;51.484;0.026;2023-08-01T04:09:10;15.13;;;4.43;;
77417;SDS011;66490;51.484;0.026;2023-08-01T04:12:05;14.52;;;4.45;;
77417;SDS011;66490;51.484;0.026;2023-08-01T04:15:03;11.95;;;4.43;;
77417;SDS011;66490;51.484;0.026;2023-08-01T04:17:59;13.18;;;3.88;;
77417;SDS011;66490;51.484;0.026;2023-08-01T04:21:03;13.10;;;4.00;;
77417;SDS011;66490;51.484;0.026;2023-08-01T04:24:12;11.00;;;3.50;;
77417;SDS011;66490;51.484;0.026;2023-08-01T04:27:11;16.45;;;4.22;;
77417;SDS011;66490;51.484;0.026;2023-08-01T04:29:56;13.88;;;4.18;;
77417;SDS011;66490;51.484;0.026;2023-08-01T04:32:43;14.85;;;4.15;;
77417;SDS011;66490;51.484;0.026;2023-08-01T04:35:33;14.07;;;4.15;;
77417;SDS011;66490;51.484;0.026;2023-08-01T04:38:28;11.60;;;3.80;;
77417;SDS011;66490;51.484;0.026;2023-08-01T04:41:19;13.48;;;3.90;;
77417;SDS011;66490;51.484;0.026;2023-08-01T04:44:04;15.25;;;4.70;;
77417;SDS011;66490;51.484;0.026;2023-08-01T04:46:51;14.93;;;3.95;;
77417;SDS011;66490;51.484;0.026;2023-08-01T04:49:39;13.70;;;3.95;;
77417;SDS011;66490;51.484;0.026;2023-08-01T04:52:34;11.47;;;3.27;;
77417;SDS011;66490;51.484;0.026;2023-08-01T04:55:19;15.23;;;3.83;;
77417;SDS011;66490;51.484;0.026;2023-08-01T04:58:03;11.68;;;4.05;;
77417;SDS011;66490;51.484;0.026;2023-08-01T05:00:48;15.32;;;4.03;;
77417;SDS011;66490;51.484;0.026;2023-08-01T05:03:39;13.93;;;3.95;;
77417;SDS011;66490;51.484;0.026;2023-08-01T05:06:23;13.70;;;3.53;;
77417;SDS011;66490;51.484;0.026;2023-08-01T05:09:08;9.73;;;2.95;;
77417;SDS011;66490;51.484;0.026;2023-08-01T05:11:52;17.23;;;3.67;;
77417;SDS011;66490;51.484;0.026;2023-08-01T05:14:36;10.85;;;3.20;;
77417;SDS011;66490;51.484;0.026;2023-08-01T05:17:21;12.90;;;3.75;;
77417;SDS011;66490;51.484;0.026;2023-08-01T05:20:11;11.57;;;3.37;;
77417;SDS011;66490;51.484;0.026;2023-08-01T05:22:56;11.02;;;3.05;;
77417;SDS011;66490;51.484;0.026;2023-08-01T05:25:46;12.52;;;4.25;;
77417;SDS011;66490;51.484;0.026;2023-08-01T05:28:31;15.52;;;3.70;;
77417;SDS011;66490;51.484;0.026;2023-08-01T05:31:21;13.90;;;3.63;;
77417;SDS011;66490;51.484;0.026;2023-08-01T05:34:08;14.80;;;3.50;;
77417;SDS011;66490;51.484;0.026;2023-08-01T05:36:55;14.85;;;3.40;;
77417;SDS011;66490;51.484;0.026;2023-08-01T05:39:41;10.50;;;4.03;;
77417;SDS011;66490;51.484;0.026;2023-08-01T05:42:26;16.85;;;3.47;;
77417;SDS011;66490;51.484;0.026;2023-08-01T05:45:10;14.63;;;4.00;;
77417;SDS011;66490;51.484;0.026;2023-08-01T05:47:57;14.53;;;3.67;;
77417;SDS011;66490;51.484;0.026;2023-08-01T05:50:41;13.05;;;4.68;;
77417;SDS011;66490;51.484;0.026;2023-08-01T05:53:26;12.13;;;3.38;;
77417;SDS011;66490;51.484;0.026;2023-08-01T05:56:11;9.43;;;3.00;;
77417;SDS011;66490;51.484;0.026;2023-08-01T05:58:55;16.58;;;3.75;;
77417;SDS011;66490;51.484;0.026;2023-08-01T06:01:43;12.07;;;3.50;;
77417;SDS011;66490;51.484;0.026;2023-08-01T06:04:28;10.93;;;3.35;;
77417;SDS011;66490;51.484;0.026;2023-08-01T06:07:12;11.20;;;2.83;;
77417;SDS011;66490;51.484;0.026;2023-08-01T06:09:59;11.85;;;3.25;;
77417;SDS011;66490;51.484;0.026;2023-08-01T06:12:44;10.85;;;3.08;;
77417;SDS011;66490;51.484;0.026;2023-08-01T06:15:31;8.47;;;2.50;;
77417;SDS011;66490;51.484;0.026;2023-08-01T06:18:15;10.18;;;3.08;;
77417;SDS011;66490;51.484;0.026;2023-08-01T06:21:01;8.73;;;2.38;;
77417;SDS011;66490;51.484;0.026;2023-08-01T06:23:46;9.25;;;3.00;;
77417;SDS011;66490;51.484;0.026;2023-08-01T06:26:30;14.07;;;4.03;;
77417;SDS011;66490;51.484;0.026;2023-08-01T06:29:14;10.17;;;2.97;;
77417;SDS011;66490;51.484;0.026;2023-08-01T06:31:59;8.32;;;3.05;;
77417;SDS011;66490;51.484;0.026;2023-08-01T06:34:48;13.13;;;2.40;;
77417;SDS011;66490;51.484;0.026;2023-08-01T06:37:32;11.40;;;3.10;;
77417;SDS011;66490;51.484;0.026;2023-08-01T06:40:16;13.38;;;3.70;;
77417;SDS011;66490;51.484;0.026;2023-08-01T06:43:01;9.97;;;2.60;;
77417;SDS011;66490;51.484;0.026;2023-08-01T06:45:45;10.88;;;2.72;;
77417;SDS011;66490;51.484;0.026;2023-08-01T06:48:30;10.27;;;2.63;;
77417;SDS011;66490;51.484;0.026;2023-08-01T06:51:15;12.20;;;2.72;;
77417;SDS011;66490;51.484;0.026;2023-08-01T06:54:04;11.55;;;3.25;;
77417;SDS011;66490;51.484;0.026;2023-08-01T06:56:50;9.13;;;3.23;;
77417;SDS011;66490;51.484;0.026;2023-08-01T06:59:35;9.65;;;2.88;;
77417;SDS011;66490;51.484;0.026;2023-08-01T07:02:21;9.23;;;2.88;;
77417;SDS011;66490;51.484;0.026;2023-08-01T07:05:06;8.68;;;2.85;;
77417;SDS011;66490;51.484;0.026;2023-08-01T07:07:54;11.45;;;2.97;;
77417;SDS011;66490;51.484;0.026;2023-08-01T07:13:36;8.02;;;3.20;;
77417;SDS011;66490;51.484;0.026;2023-08-01T07:16:31;10.65;;;2.20;;
77417;SDS011;66490;51.484;0.026;2023-08-01T07:19:51;12.57;;;2.80;;
77417;SDS011;66490;51.484;0.026;2023-08-01T07:22:38;8.13;;;2.45;;
77417;SDS011;66490;51.484;0.026;2023-08-01T07:25:26;7.57;;;2.20;;
77417;SDS011;66490;51.484;0.026;2023-08-01T07:28:11;7.43;;;2.40;;
77417;SDS011;66490;51.484;0.026;2023-08-01T07:31:03;9.48;;;2.58;;
77417;SDS011;66490;51.484;0.026;2023-08-01T07:33:54;12.90;;;2.65;;
77417;SDS011;66490;51.484;0.026;2023-08-01T07:36:49;7.30;;;2.30;;
77417;SDS011;66490;51.484;0.026;2023-08-01T07:39:33;10.27;;;1.90;;
77417;SDS011;66490;51.484;0.026;2023-08-01T07:42:20;10.45;;;2.13;;
77417;SDS011;66490;51.484;0.026;2023-08-01T07:45:27;8.85;;;2.78;;
77417;SDS011;66490;51.484;0.026;2023-08-01T07:48:14;9.23;;;2.33;;
77417;SDS011;66490;51.484;0.026;2023-08-01T07:51:00;6.57;;;1.98;;
77417;SDS011;66490;51.484;0.026;2023-08-01T07:53:52;10.90;;;1.67;;
77417;SDS011;66490;51.484;0.026;2023-08-01T07:57:08;10.70;;;1.73;;
77417;SDS011;66490;51.484;0.026;2023-08-01T08:00:04;8.55;;;2.13;;
77417;SDS011;66490;51.484;0.026;2023-08-01T08:03:08;6.45;;;1.80;;
77417;SDS011;66490;51.484;0.026;2023-08-01T08:06:10;10.07;;;2.28;;
77417;SDS011;66490;51.484;0.026;2023-08-01T08:09:09;7.37;;;1.70;;
77417;SDS011;66490;51.484;0.026;2023-08-01T08:12:06;7.50;;;2.25;;
77417;SDS011;66490;51.484;0.026;2023-08-01T08:14:52;7.47;;;2.55;;
77417;SDS011;66490;51.484;0.026;2023-08-01T08:17:39;10.82;;;2.25;;
77417;SDS011;66490;51.484;0.026;2023-08-01T08:20:31;7.10;;;1.83;;
77417;SDS011;66490;51.484;0.026;2023-08-01T08:23:17;7.90;;;1.53;;
77417;SDS011;66490;51.484;0.026;2023-08-01T08:26:07;6.25;;;1.90;;
77417;SDS011;66490;51.484;0.026;2023-08-01T08:28:54;8.75;;;2.35;;
77417;SDS011;66490;51.484;0.026;2023-08-01T08:32:01;8.50;;;2.15;;
77417;SDS011;66490;51.484;0.026;2023-08-01T08:34:50;9.75;;;1.95;;
77417;SDS011;66490;51.484;0.026;2023-08-01T08:37:35;8.70;;;1.50;;
77417;SDS011;66490;51.484;0.026;2023-08-01T08:40:36;5.47;;;1.42;;
77417;SDS011;66490;51.484;0.026;2023-08-01T08:43:27;7.97;;;2.00;;
77417;SDS011;66490;51.484;0.026;2023-08-01T08:46:15;8.95;;;1.50;;
77417;SDS011;66490;51.484;0.026;2023-08-01T08:49:04;7.43;;;1.65;;
77417;SDS011;66490;51.484;0.026;2023-08-01T08:51:49;6.50;;;1.23;;
77417;SDS011;66490;51.484;0.026;2023-08-01T08:54:37;5.75;;;1.02;;
77417;SDS011;66490;51.484;0.026;2023-08-01T08:57:44;7.50;;;1.48;;
77417;SDS011;66490;51.484;0.026;2023-08-01T09:00:34;6.10;;;1.60;;
77417;SDS011;66490;51.484;0.026;2023-08-01T09:03:22;4.45;;;1.20;;
77417;SDS011;66490;51.484;0.026;2023-08-01T09:06:23;6.13;;;1.13;;
77417;SDS011;66490;51.484;0.026;2023-08-01T09:09:26;7.72;;;1.30;;
77417;SDS011;66490;51.484;0.026;2023-08-01T09:12:33;6.60;;;1.80;;
77417;SDS011;66490;51.484;0.026;2023-08-01T09:15:19;5.32;;;1.15;;
77417;SDS011;66490;51.484;0.026;2023-08-01T09:18:12;5.75;;;1.35;;
77417;SDS011;66490;51.484;0.026;2023-08-01T09:21:01;6.50;;;1.07;;
77417;SDS011;66490;51.484;0.026;2023-08-01T09:23:47;7.70;;;1.45;;
77417;SDS011;66490;51.484;0.026;2023-08-01T09:26:33;6.28;;;1.88;;
77417;SDS011;66490;51.484;0.026;2023-08-01T09:29:18;6.20;;;1.20;;
77417;SDS011;66490;51.484;0.026;2023-08-01T09:32:19;6.65;;;2.22;;
77417;SDS011;66490;51.484;0.026;2023-08-01T09:35:09;7.83;;;1.77;;
77417;SDS011;66490;51.484;0.026;2023-08-01T09:37:59;6.25;;;1.25;;
77417;SDS011;66490;51.484;0.026;2023-08-01T09:40:57;5.70;;;1.27;;
77417;SDS011;66490;51.484;0.026;2023-08-01T09:43:46;4.82;;;1.27;;
77417;SDS011;66490;51.484;0.026;2023-08-01T09:46:33;5.10;;;1.05;;
77417;SDS011;66490;51.484;0.026;2023-08-01T09:49:28;4.67;;;1.07;;
77417;SDS011;66490;51.484;0.026;2023-08-01T09:52:26;5.75;;;1.10;;
77417;SDS011;66490;51.484;0.026;2023-08-01T09:55:13;5.43;;;1.65;;
77417;SDS011;66490;51.484;0.026;2023-08-01T09:58:03;5.13;;;1.63;;
77417;SDS011;66490;51.484;0.026;2023-08-01T10:00:50;5.28;;;1.73;;
77417;SDS011;66490;51.484;0.026;2023-08-01T10:03:35;7.47;;;1.63;;
77417;SDS011;66490;51.484;0.026;2023-08-01T10:06:39;3.88;;;1.00;;
77417;SDS011;66490;51.484;0.026;2023-08-01T10:09:27;3.72;;;1.10;;
77417;SDS011;66490;51.484;0.026;2023-08-01T10:12:14;5.78;;;1.42;;
77417;SDS011;66490;51.484;0.026;2023-08-01T10:15:11;5.13;;;1.25;;
77417;SDS011;66490;51.484;0.026;2023-08-01T10:18:14;3.90;;;0.90;;
77417;SDS011;66490;51.484;0.026;2023-08-01T10:21:05;5.55;;;1.10;;
77417;SDS011;66490;51.484;0.026;2023-08-01T10:23:54;7.50;;;1.67;;
77417;SDS011;66490;51.484;0.026;2023-08-01T10:26:47;5.20;;;1.30;;
77417;SDS011;66490;51.484;0.026;2023-08-01T10:29:35;5.28;;;1.52;;
77417;SDS011;66490;51.484;0.026;2023-08-01T10:32:36;7.80;;;1.10;;
77417;SDS011;66490;51.484;0.026;2023-08-01T10:35:36;4.10;;;1.20;;
77417;SDS011;66490;51.484;0.026;2023-08-01T10:38:43;4.45;;;1.15;;
77417;SDS011;66490;51.484;0.026;2023-08-01T10:42:00;5.82;;;1.05;;
77417;SDS011;66490;51.484;0.026;2023-08-01T10:48:12;5.83;;;1.30;;
77417;SDS011;66490;51.484;0.026;2023-08-01T10:51:06;4.55;;;1.13;;
77417;SDS011;66490;51.484;0.026;2023-08-01T10:57:24;5.18;;;1.20;;
77417;SDS011;66490;51.484;0.026;2023-08-01T11:00:15;5.75;;;1.20;;
77417;SDS011;66490;51.484;0.026;2023-08-01T11:03:16;3.03;;;1.00;;
77417;SDS011;66490;51.484;0.026;2023-08-01T11:06:22;5.78;;;0.70;;
77417;SDS011;66490;51.484;0.026;2023-08-01T11:09:22;3.25;;;1.50;;
77417;SDS011;66490;51.484;0.026;2023-08-01T11:12:13;3.70;;;1.45;;
77417;SDS011;66490;51.484;0.026;2023-08-01T11:15:04;3.67;;;1.20;;
77417;SDS011;66490;51.484;0.026;2023-08-01T11:17:52;5.00;;;1.37;;
77417;SDS011;66490;51.484;0.026;2023-08-01T11:20:38;4.82;;;1.42;;
77417;SDS011;66490;51.484;0.026;2023-08-01T11:23:32;4.55;;;1.63;;
77417;SDS011;66490;51.484;0.026;2023-08-01T11:26:19;4.63;;;1.08;;
77417;SDS011;66490;51.484;0.026;2023-08-01T11:29:05;5.28;;;1.30;;
77417;SDS011;66490;51.484;0.026;2023-08-01T11:31:53;5.23;;;1.30;;
77417;SDS011;66490;51.484;0.026;2023-08-01T11:34:45;5.57;;;1.77;;
77417;SDS011;66490;51.484;0.026;2023-08-01T11:37:33;5.35;;;1.38;;
77417;SDS011;66490;51.484;0.026;2023-08-01T11:40:17;4.75;;;0.80;;
77417;SDS011;66490;51.484;0.026;2023-08-01T11:43:12;4.80;;;1.45;;
77417;SDS011;66490;51.484;0.026;2023-08-01T11:45:56;5.53;;;1.23;;
77417;SDS011;66490;51.484;0.026;2023-08-01T11:48:46;3.53;;;0.85;;
77417;SDS011;66490;51.484;0.026;2023-08-01T11:51:59;2.95;;;1.02;;
77417;SDS011;66490;51.484;0.026;2023-08-01T11:54:44;3.80;;;0.93;;
77417;SDS011;66490;51.484;0.026;2023-08-01T11:57:40;2.97;;;0.93;;
77417;SDS011;66490;51.484;0.026;2023-08-01T12:07:30;2.72;;;0.90;;
77417;SDS011;66490;51.484;0.026;2023-08-01T12:10:36;4.18;;;0.80;;
77417;SDS011;66490;51.484;0.026;2023-08-01T12:13:39;4.47;;;1.20;;
77417;SDS011;66490;51.484;0.026;2023-08-01T12:16:35;4.83;;;1.20;;
77417;SDS011;66490;51.484;0.026;2023-08-01T12:19:28;5.80;;;1.30;;
77417;SDS011;66490;51.484;0.026;2023-08-01T12:22:20;4.40;;;1.08;;
77417;SDS011;66490;51.484;0.026;2023-08-01T12:25:10;4.40;;;1.27;;
77417;SDS011;66490;51.484;0.026;2023-08-01T12:28:06;4.22;;;0.98;;
77417;SDS011;66490;51.484;0.026;2023-08-01T12:31:03;3.40;;;0.73;;
77417;SDS011;66490;51.484;0.026;2023-08-01T12:34:09;2.78;;;0.82;;
77417;SDS011;66490;51.484;0.026;2023-08-01T12:36:53;5.35;;;1.05;;
77417;SDS011;66490;51.484;0.026;2023-08-01T12:39:40;2.88;;;1.00;;
77417;SDS011;66490;51.484;0.026;2023-08-01T12:42:33;3.70;;;1.20;;
77417;SDS011;66490;51.484;0.026;2023-08-01T12:45:18;3.93;;;0.97;;
77417;SDS011;66490;51.484;0.026;2023-08-01T12:48:08;4.38;;;1.02;;
77417;SDS011;66490;51.484;0.026;2023-08-01T12:50:52;4.13;;;1.08;;
77417;SDS011;66490;51.484;0.026;2023-08-01T12:53:42;3.38;;;0.90;;
77417;SDS011;66490;51.484;0.026;2023-08-01T12:56:29;4.55;;;1.17;;
77417;SDS011;66490;51.484;0.026;2023-08-01T12:59:13;4.17;;;1.37;;
77417;SDS011;66490;51.484;0.026;2023-08-01T13:02:00;4.50;;;1.40;;
77417;SDS011;66490;51.484;0.026;2023-08-01T13:04:44;6.47;;;1.83;;
77417;SDS011;66490;51.484;0.026;2023-08-01T13:07:28;4.07;;;1.65;;
77417;SDS011;66490;51.484;0.026;2023-08-01T13:10:16;4.72;;;1.00;;
77417;SDS011;66490;51.484;0.026;2023-08-01T13:13:00;4.17;;;1.20;;
77417;SDS011;66490;51.484;0.026;2023-08-01T13:15:47;3.38;;;0.85;;
77417;SDS011;66490;51.484;0.026;2023-08-01T13:18:35;2.58;;;1.00;;
77417;SDS011;66490;51.484;0.026;2023-08-01T13:21:21;6.95;;;1.00;;
77417;SDS011;66490;51.484;0.026;2023-08-01T13:24:06;4.68;;;1.25;;
77417;SDS011;66490;51.484;0.026;2023-08-01T13:26:50;3.40;;;1.00;;
77417;SDS011;66490;51.484;0.026;2023-08-01T13:29:35;5.15;;;1.33;;
77417;SDS011;66490;51.484;0.026;2023-08-01T13:32:20;5.57;;;1.52;;
77417;SDS011;66490;51.484;0.026;2023-08-01T13:35:05;5.72;;;1.05;;
77417;SDS011;66490;51.484;0.026;2023-08-01T13:37:49;5.72;;;1.60;;
77417;SDS011;66490;51.484;0.026;2023-08-01T13:40:36;4.57;;;0.90;;
77417;SDS011;66490;51.484;0.026;2023-08-01T13:43:25;4.68;;;1.35;;
77417;SDS011;66490;51.484;0.026;2023-08-01T13:46:13;5.22;;;1.50;;
77417;SDS011;66490;51.484;0.026;2023-08-01T13:48:59;4.32;;;1.25;;
77417;SDS011;66490;51.484;0.026;2023-08-01T13:51:46;3.83;;;1.42;;
77417;SDS011;66490;51.484;0.026;2023-08-01T13:54:30;3.90;;;1.00;;
77417;SDS011;66490;51.484;0.026;2023-08-01T13:57:18;3.47;;;1.08;;
77417;SDS011;66490;51.484;0.026;2023-08-01T14:00:02;6.28;;;1.20;;
77417;SDS011;66490;51.484;0.026;2023-08-01T14:02:49;4.18;;;1.02;;
77417;SDS011;66490;51.484;0.026;2023-08-01T14:05:34;4.15;;;1.17;;
77417;SDS011;66490;51.484;0.026;2023-08-01T14:08:22;5.30;;;1.10;;
77417;SDS011;66490;51.484;0.026;2023-08-01T14:11:07;5.10;;;1.00;;
77417;SDS011;66490;51.484;0.026;2023-08-01T14:13:53;4.13;;;1.23;;
77417;SDS011;66490;51.484;0.026;2023-08-01T14:16:37;4.72;;;0.95;;
77417;SDS011;66490;51.484;0.026;2023-08-01T14:19:22;5.47;;;1.58;;
77417;SDS011;66490;51.484;0.026;2023-08-01T14:22:06;4.47;;;1.37;;
77417;SDS011;66490;51.484;0.026;2023-08-01T14:24:51;4.50;;;1.17;;
77417;SDS011;66490;51.484;0.026;2023-08-01T14:27:35;5.05;;;1.40;;
77417;SDS011;66490;51.484;0.026;2023-08-01T14:30:20;4.38;;;1.23;;
77417;SDS011;66490;51.484;0.026;2023-08-01T14:33:06;4.57;;;1.20;;
77417;SDS011;66490;51.484;0.026;2023-08-01T14:35:57;5.07;;;1.50;;
77417;SDS011;66490;51.484;0.026;2023-08-01T14:38:43;4.72;;;1.10;;
77417;SDS011;66490;51.484;0.026;2023-08-01T14:41:30;5.13;;;1.30;;
77417;SDS011;66490;51.484;0.026;2023-08-01T14:44:15;4.40;;;1.33;;
77417;SDS011;66490;51.484;0.026;2023-08-01T14:47:02;4.72;;;1.08;;
77417;SDS011;66490;51.484;0.026;2023-08-01T14:49:49;3.00;;;1.00;;
77417;SDS011;66490;51.484;0.026;2023-08-01T14:52:40;4.18;;;1.15;;
77417;SDS011;66490;51.484;0.026;2023-08-01T14:55:24;5.55;;;1.50;;
77417;SDS011;66490;51.484;0.026;2023-08-01T14:58:09;2.75;;;1.20;;
77417;SDS011;66490;51.484;0.026;2023-08-01T15:00:53;3.80;;;1.30;;
77417;SDS011;66490;51.484;0.026;2023-08-01T15:03:41;3.90;;;1.00;;
77417;SDS011;66490;51.484;0.026;2023-08-01T15:06:32;5.82;;;1.15;;
77417;SDS011;66490;51.484;0.026;2023-08-01T15:09:19;2.80;;;1.17;;
77417;SDS011;66490;51.484;0.026;2023-08-01T15:12:06;5.07;;;1.40;;
77417;SDS011;66490;51.484;0.026;2023-08-01T15:14:53;3.05;;;1.20;;
77417;SDS011;66490;51.484;0.026;2023-08-01T15:17:43;2.63;;;0.80;;
77417;SDS011;66490;51.484;0.026;2023-08-01T15:23:33;4.25;;;1.08;;
77417;SDS011;66490;51.484;0.026;2023-08-01T15:26:29;3.35;;;0.80;;
77417;SDS011;66490;51.484;0.026;2023-08-01T15:29:16;3.63;;;1.08;;
77417;SDS011;66490;51.484;0.026;2023-08-01T15:32:04;4.03;;;0.60;;
77417;SDS011;66490;51.484;0.026;2023-08-01T15:34:55;4.60;;;1.40;;
77417;SDS011;66490;51.484;0.026;2023-08-01T15:37:46;3.13;;;1.10;;
77417;SDS011;66490;51.484;0.026;2023-08-01T15:40:43;5.47;;;1.38;;
77417;SDS011;66490;51.484;0.026;2023-08-01T15:43:33;4.60;;;1.02;;
77417;SDS011;66490;51.484;0.026;2023-08-01T15:46:38;4.57;;;1.17;;
77417;SDS011;66490;51.484;0.026;2023-08-01T15:49:32;3.45;;;1.27;;
77417;SDS011;66490;51.484;0.026;2023-08-01T15:52:16;4.22;;;1.13;;
77417;SDS011;66490;51.484;0.026;2023-08-01T15:55:05;2.97;;;1.02;;
77417;SDS011;66490;51.484;0.026;2023-08-01T15:57:50;4.68;;;1.10;;
77417;SDS011;66490;51.484;0.026;2023-08-01T16:00:37;2.90;;;0.70;;
77417;SDS011;66490;51.484;0.026;2023-08-01T16:03:28;5.13;;;0.90;;
77417;SDS011;66490;51.484;0.026;2023-08-01T16:06:13;5.43;;;0.80;;
77417;SDS011;66490;51.484;0.026;2023-08-01T16:08:58;3.88;;;1.00;;
77417;SDS011;66490;51.484;0.026;2023-08-01T16:11:44;3.67;;;1.20;;
77417;SDS011;66490;51.484;0.026;2023-08-01T16:14:31;4.70;;;1.07;;
77417;SDS011;66490;51.484;0.026;2023-08-01T16:17:16;3.33;;;1.00;;
77417;SDS011;66490;51.484;0.026;2023-08-01T16:20:00;2.67;;;0.90;;
77417;SDS011;66490;51.484;0.026;2023-08-01T16:22:48;4.68;;;0.93;;
77417;SDS011;66490;51.484;0.026;2023-08-01T16:25:35;4.85;;;1.35;;
77417;SDS011;66490;51.484;0.026;2023-08-01T16:28:19;5.90;;;1.10;;
77417;SDS011;66490;51.484;0.026;2023-08-01T16:31:04;6.97;;;1.25;;
77417;SDS011;66490;51.484;0.026;2023-08-01T16:33:50;8.82;;;1.90;;
77417;SDS011;66490;51.484;0.026;2023-08-01T16:36:34;5.50;;;1.50;;
77417;SDS011;66490;51.484;0.026;2023-08-01T16:39:20;7.15;;;2.10;;
77417;SDS011;66490;51.484;0.026;2023-08-01T16:42:05;8.30;;;2.13;;
77417;SDS011;66490;51.484;0.026;2023-08-01T16:44:57;7.80;;;2.03;;
77417;SDS011;66490;51.484;0.026;2023-08-01T16:47:42;10.73;;;2.55;;
77417;SDS011;66490;51.484;0.026;2023-08-01T16:50:26;9.00;;;2.08;;
77417;SDS011;66490;51.484;0.026;2023-08-01T16:53:10;6.68;;;2.17;;
77417;SDS011;66490;51.484;0.026;2023-08-01T16:55:55;8.63;;;2.40;;
77417;SDS011;66490;51.484;0.026;2023-08-01T16:58:39;10.18;;;3.00;;
77417;SDS011;66490;51.484;0.026;2023-08-01T17:01:23;10.07;;;2.80;;
77417;SDS011;66490;51.484;0.026;2023-08-01T17:04:10;7.68;;;2.15;;
77417;SDS011;66490;51.484;0.026;2023-08-01T17:06:54;8.32;;;3.47;;
77417;SDS011;66490;51.484;0.026;2023-08-01T17:09:39;10.40;;;2.60;;
77417;SDS011;66490;51.484;0.026;2023-08-01T17:12:23;7.10;;;2.65;;
77417;SDS011;66490;51.484;0.026;2023-08-01T17:15:07;7.60;;;2.63;;
77417;SDS011;66490;51.484;0.026;2023-08-01T17:17:52;8.15;;;2.42;;
77417;SDS011;66490;51.484;0.026;2023-08-01T17:20:39;9.85;;;2.38;;
77417;SDS011;66490;51.484;0.026;2023-08-01T17:23:23;8.70;;;2.70;;
77417;SDS011;66490;51.484;0.026;2023-08-01T17:26:07;7.60;;;2.60;;